Maersk Leon — 9V9778 — position and weather

sailwx.info

Track history (hours):
 
Tides and Currents Weather Stations Pressure Air Temp Water Temp Dewpoint Dewpoint Depression Visibility Wind Speed Wind Dir Waves Ship Positions

Maersk Leon

Last reported at 2017-Dec-18 07:01 UTC. Time now 2017-Dec-18 07:12 UTC.
Position N 51°22' E 003°55'.

Length 300 m; draft 9.8 m.

Type: Cargo ship. MMSI: 566405000.

Date/timePositionNaut miles runAvg speedWind from/ knotsBaromVisibWave heightAir tempDewpointWater temp
2017-Dec-18 07:01N 51°22' E 003°55'611.1
2017-Dec-18 06:31N 51°25' E 004°02'511.0
2017-Dec-18 06:00N 51°23' E 004°10'5 9.8
2017-Dec-18 05:30N 51°20' E 004°16'3 6.6
2017-Dec-18 05:00N 51°17' E 004°15'0 0.2
2017-Dec-18 04:30N 51°17' E 004°15'0 0.0
2017-Dec-18 04:00N 51°17' E 004°15'0 0.0
2017-Dec-18 03:30N 51°17' E 004°15'0 0.0
2017-Dec-18 03:00N 51°17' E 004°15'0 0.0
2017-Dec-18 02:30N 51°17' E 004°15'0 0.0
2017-Dec-18 02:00N 51°17' E 004°15'0 0.0
2017-Dec-18 01:30N 51°17' E 004°15'0 0.0
2017-Dec-18 01:00N 51°17' E 004°15'0 0.0
2017-Dec-18 00:30N 51°17' E 004°15'0 0.0
2017-Dec-18 00:00N 51°17' E 004°15'0 0.0
2017-Dec-17 23:30N 51°17' E 004°15'0 0.0
2017-Dec-17 23:00N 51°17' E 004°15'0 0.0
2017-Dec-17 22:30N 51°17' E 004°15'0 0.0
2017-Dec-17 22:00N 51°17' E 004°15'0 0.0
2017-Dec-17 21:30N 51°17' E 004°15'0 0.0
2017-Dec-17 21:00N 51°17' E 004°15'0 0.0
2017-Dec-17 20:30N 51°17' E 004°15'0 0.0
2017-Dec-17 20:00N 51°17' E 004°15'0 0.0
2017-Dec-17 19:30N 51°17' E 004°15'0 0.0
2017-Dec-17 19:00N 51°17' E 004°15'0 0.0
2017-Dec-17 18:30N 51°17' E 004°15'0 0.0
2017-Dec-17 18:00N 51°17' E 004°15'0 0.0
2017-Dec-17 17:30N 51°17' E 004°15'0 0.0
2017-Dec-17 17:00N 51°17' E 004°15'0 0.0
2017-Dec-17 16:30N 51°17' E 004°15'0 0.0
2017-Dec-17 15:57N 51°17' E 004°15'0 0.0
2017-Dec-17 15:30N 51°17' E 004°15'0 0.0
2017-Dec-17 15:00N 51°17' E 004°15'1 2.0
2017-Dec-17 14:30N 51°18' E 004°16'2 3.7
2017-Dec-17 14:00N 51°20' E 004°16'510.5
2017-Dec-17 13:30N 51°23' E 004°10'511.0
2017-Dec-17 13:00N 51°25' E 004°02'713.7
2017-Dec-17 12:30N 51°21' E 003°53'714.8
2017-Dec-17 12:00N 51°25' E 003°43'510.5
2017-Dec-17 11:30N 51°25' E 003°34'918.4
2017-Dec-17 11:00N 51°24' E 003°20'1020.4
2017-Dec-17 10:30N 51°25' E 003°03'918.1
2017-Dec-17 10:00N 51°22' E 002°49'5 9.0
2017-Dec-17 09:30N 51°22' E 002°42'5 9.8
2017-Dec-17 09:00N 51°24' E 002°35'2 1.9
2017-Dec-17 07:47N 51°26' E 002°36'0 0.0
2017-Dec-17 06:03N 51°26' E 002°36'0 0.0
2017-Dec-17 05:59N 51°26' E 002°36'0 0.1
2017-Dec-17 05:27N 51°26' E 002°36'0 0.0
2017-Dec-17 04:53N 51°26' E 002°36'0 0.0
2017-Dec-17 04:26N 51°26' E 002°36'0 0.1
2017-Dec-17 03:59N 51°26' E 002°36'0 0.1
2017-Dec-17 03:18N 51°26' E 002°36'0 0.0
2017-Dec-17 01:42N 51°26' E 002°36'0 0.0
2017-Dec-17 01:15N 51°26' E 002°36'0 0.0
2017-Dec-16 15:38N 51°26' E 002°36'0 0.1
2017-Dec-16 15:18N 51°26' E 002°36'0 0.0
2017-Dec-16 14:45N 51°26' E 002°36'0 0.1
2017-Dec-16 13:59N 51°27' E 002°36'0 0.9
2017-Dec-16 13:28N 51°27' E 002°36'611.3
2017-Dec-16 12:59N 51°22' E 002°31'612.6
2017-Dec-16 12:30N 51°20' E 002°23'613.0
2017-Dec-16 12:01N 51°16' E 002°14'713.0
2017-Dec-16 11:30N 51°13' E 002°04'713.3
2017-Dec-16 11:00N 51°10' E 001°55'713.4
2017-Dec-16 10:30N 51°07' E 001°46'613.0
2017-Dec-16 10:00N 51°02' E 001°38'3176.8
2017-Dec-16 10:00N 51°00' E 001°36'4 7.3 340 / 161016.1 5.4 4.0-1.612.0
2017-Dec-16 09:30N 50°58' E 001°31'611.7
2017-Dec-16 09:00N 50°53' E 001°26'611.0
2017-Dec-16 08:26N 50°47' E 001°24'410.2
2017-Dec-16 08:00N 50°43' E 001°21'510.7
2017-Dec-16 07:30N 50°39' E 001°16'510.5
2017-Dec-16 07:00N 50°35' E 001°10'610.2
2017-Dec-16 06:25N 50°32' E 001°03'410.4
2017-Dec-16 06:00N 50°29' E 000°57'611.2
2017-Dec-16 05:30N 50°27' E 000°48'610.7
2017-Dec-16 04:55N 50°26' E 000°39'410.4
2017-Dec-16 04:30N 50°24' E 000°33'5 9.9
2017-Dec-16 04:00N 50°23' E 000°25'5 9.6
2017-Dec-16 03:30N 50°21' E 000°18'5 9.5
2017-Dec-16 03:00N 50°20' E 000°11'5 9.4
2017-Dec-16 02:30N 50°19' E 000°04'5 9.3
2017-Dec-16 02:00N 50°18' W 000°03'5 9.2
2017-Dec-16 01:30N 50°18' W 000°11'5 9.3
2017-Dec-16 01:00N 50°18' W 000°18'5 9.3
2017-Dec-16 00:30N 50°18' W 000°25'5 9.4
2017-Dec-16 00:00N 50°19' W 000°33'5 9.6
2017-Dec-15 23:28N 50°20' W 000°40'5 9.6
2017-Dec-15 23:00N 50°22' W 000°47'612.2
2017-Dec-15 22:30N 50°28' W 000°47'611.6
2017-Dec-15 22:00N 50°33' W 000°51'611.4
2017-Dec-15 21:30N 50°38' W 000°55'510.0
2017-Dec-15 21:00N 50°43' W 000°58'816.6
2017-Dec-15 20:30N 50°46' W 001°10'510.7
2017-Dec-15 20:00N 50°48' W 001°17'5 9.2
2017-Dec-15 19:30N 50°52' W 001°22'3 6.9
2017-Dec-15 19:00N 50°54' W 001°26'0 0.5
2017-Dec-15 18:28N 50°54' W 001°27'0 0.0
2017-Dec-15 17:58N 50°54' W 001°27'0 0.0
2017-Dec-15 17:28N 50°54' W 001°27'0 0.0
2017-Dec-15 16:58N 50°54' W 001°27'0 0.0
2017-Dec-15 16:28N 50°54' W 001°27'0 0.0
2017-Dec-15 15:58N 50°54' W 001°27'0 0.0
2017-Dec-15 15:28N 50°54' W 001°27'0 0.0
2017-Dec-15 14:58N 50°54' W 001°27'0 0.0
2017-Dec-15 14:28N 50°54' W 001°27'0 0.0
2017-Dec-15 13:58N 50°54' W 001°27'0 0.0
2017-Dec-15 13:28N 50°54' W 001°27'0 0.0
2017-Dec-15 12:58N 50°54' W 001°27'0 0.0
2017-Dec-15 12:28N 50°54' W 001°27'0 0.0
2017-Dec-15 11:58N 50°54' W 001°27'0 0.0
2017-Dec-15 11:28N 50°54' W 001°27'0 0.0
2017-Dec-15 10:58N 50°54' W 001°27'0 0.0
2017-Dec-15 10:28N 50°54' W 001°27'0 0.0
2017-Dec-15 09:58N 50°54' W 001°27'0 0.0
2017-Dec-15 09:28N 50°54' W 001°27'0 0.0
2017-Dec-15 08:46N 50°54' W 001°27'0 0.0
2017-Dec-15 08:28N 50°54' W 001°27'0 0.0
2017-Dec-15 07:58N 50°54' W 001°27'0 0.0
2017-Dec-15 07:28N 50°54' W 001°27'0 0.0
2017-Dec-15 06:58N 50°54' W 001°27'0 0.0
2017-Dec-15 06:28N 50°54' W 001°27'0 0.0
2017-Dec-15 05:58N 50°54' W 001°27'0 0.0
2017-Dec-15 05:28N 50°54' W 001°27'0 0.0
2017-Dec-15 04:58N 50°54' W 001°27'0 0.0
2017-Dec-15 04:28N 50°54' W 001°27'0 0.0
2017-Dec-15 03:58N 50°54' W 001°27'6 4.1
2017-Dec-15 02:31N 50°51' W 001°19'1912.3
2017-Dec-15 01:00N 50°40' W 000°56'4 7.8
2017-Dec-15 00:31N 50°37' W 000°51'37 6.2
2017-Dec-14 18:30N 50°34' E 000°07'3 5.3
2017-Dec-14 18:00N 50°34' E 000°11'3 5.5
2017-Dec-14 17:30N 50°35' E 000°15'3 5.8
2017-Dec-14 17:00N 50°36' E 000°19'3 6.2
2017-Dec-14 16:30N 50°37' E 000°24'3 6.7
2017-Dec-14 16:00N 50°38' E 000°29'7 7.2
2017-Dec-14 15:00N 50°41' E 000°39'4 8.5
2017-Dec-14 14:30N 50°43' E 000°45'4 8.9
2017-Dec-14 14:00N 50°46' E 000°50'4 8.8
2017-Dec-14 13:30N 50°49' E 000°56'4 8.6
2017-Dec-14 13:00N 50°51' E 001°02'4 7.9
2017-Dec-14 12:30N 50°53' E 001°07'4 7.4
2017-Dec-14 12:00N 50°56' E 001°11'3 6.9
2017-Dec-14 11:30N 50°58' E 001°15'4 6.4
2017-Dec-14 10:52N 51°01' E 001°20'2 5.9
2017-Dec-14 10:30N 51°02' E 001°23'3 5.5
2017-Dec-14 10:00N 51°04' E 001°26'3 5.7
2017-Dec-14 09:30N 51°06' E 001°30'3 5.6
2017-Dec-14 09:00N 51°07' E 001°33'3 5.6
2017-Dec-14 08:30N 51°09' E 001°37'3 6.2
2017-Dec-14 08:00N 51°11' E 001°40'3 6.6
2017-Dec-14 07:30N 51°13' E 001°44'4 7.4
2017-Dec-14 07:00N 51°16' E 001°48'4 7.7
2017-Dec-14 06:30N 51°19' E 001°52'4 8.1
2017-Dec-14 06:00N 51°22' E 001°56'4 7.9
2017-Dec-14 05:30N 51°25' E 002°01'4 7.9
2017-Dec-14 05:00N 51°23' E 002°07'4 7.4
2017-Dec-14 04:30N 51°21' E 002°12'5 9.1
2017-Dec-14 04:00N 51°21' E 002°19'4 7.8
2017-Dec-14 03:30N 51°22' E 002°25'3 6.1
2017-Dec-14 03:00N 51°24' E 002°29'3 6.4
2017-Dec-14 02:30N 51°26' E 002°32'4 3.0
2017-Dec-14 01:12N 51°26' E 002°39'1 1.6
2017-Dec-14 00:42N 51°26' E 002°37'0 0.3
2017-Dec-14 00:30N 51°26' E 002°37'0 0.1
2017-Dec-13 23:48N 51°26' E 002°37'0 0.1
2017-Dec-13 23:27N 51°26' E 002°37'0 0.1
2017-Dec-13 23:00N 51°26' E 002°37'0 0.0
2017-Dec-13 21:48N 51°26' E 002°37'0 0.0
2017-Dec-13 20:54N 51°26' E 002°37'0 0.0
2017-Dec-13 17:52N 51°26' E 002°37'0 0.8
2017-Dec-13 17:26N 51°27' E 002°37'0 0.1
2017-Dec-13 16:53N 51°27' E 002°37'0 0.0
2017-Dec-13 14:17N 51°27' E 002°37'0 0.1
2017-Dec-13 13:56N 51°27' E 002°37'0 0.1
2017-Dec-13 13:11N 51°26' E 002°37'0 0.0
2017-Dec-13 12:50N 51°26' E 002°37'0 0.0
2017-Dec-13 12:02N 51°26' E 002°37'0 0.0
2017-Dec-13 11:47N 51°26' E 002°37'0 0.1
2017-Dec-13 11:29N 51°26' E 002°37'0 0.0
2017-Dec-13 10:14N 51°26' E 002°37'0 0.1
2017-Dec-13 09:53N 51°26' E 002°37'0 0.0
2017-Dec-13 09:29N 51°26' E 002°37'0 0.0
2017-Dec-13 08:59N 51°26' E 002°37'0 0.2
2017-Dec-13 08:08N 51°27' E 002°37'0 0.0
2017-Dec-13 07:56N 51°27' E 002°37'0 0.0
2017-Dec-13 07:29N 51°27' E 002°37'0 0.1
2017-Dec-13 06:59N 51°27' E 002°37'0 0.1
2017-Dec-13 06:23N 51°27' E 002°37'0 0.0
2017-Dec-13 05:56N 51°27' E 002°37'0 0.0
2017-Dec-13 05:23N 51°27' E 002°37'0 0.0
2017-Dec-13 04:56N 51°27' E 002°37'0 0.1
2017-Dec-13 04:26N 51°27' E 002°37'0 0.0
2017-Dec-13 03:56N 51°27' E 002°37'0 0.0
2017-Dec-13 03:26N 51°27' E 002°36'0 0.0
2017-Dec-13 02:56N 51°27' E 002°37'0 0.0
2017-Dec-13 02:26N 51°27' E 002°37'0 0.0
2017-Dec-13 01:56N 51°27' E 002°37'0 0.0
2017-Dec-13 01:26N 51°27' E 002°36'0 0.0
2017-Dec-13 00:56N 51°27' E 002°36'0 0.1
2017-Dec-13 00:29N 51°27' E 002°37'0 0.0
2017-Dec-12 23:59N 51°27' E 002°37'0 0.0
2017-Dec-12 23:14N 51°27' E 002°37'0 0.1
2017-Dec-12 22:56N 51°27' E 002°37'0 0.0
2017-Dec-12 22:26N 51°27' E 002°37'0 0.0
2017-Dec-12 19:38N 51°27' E 002°37'0 0.8
2017-Dec-12 19:27N 51°26' E 002°37'4 8.8
2017-Dec-12 18:58N 51°25' E 002°43'511.7
2017-Dec-12 18:30N 51°25' E 002°52'714.7
2017-Dec-12 18:00N 51°24' E 003°04'611.9
2017-Dec-12 17:30N 51°21' E 003°12'1 1.1
2017-Dec-12 17:00N 51°21' E 003°11'0 0.0
2017-Dec-12 16:29N 51°21' E 003°11'0 0.0
2017-Dec-12 15:59N 51°21' E 003°11'0 0.0
2017-Dec-12 15:29N 51°21' E 003°11'0 0.0
2017-Dec-12 15:00N 51°21' E 003°11'0 0.0
2017-Dec-12 14:29N 51°21' E 003°11'0 0.0
2017-Dec-12 13:59N 51°21' E 003°11'0 0.0
2017-Dec-12 13:29N 51°21' E 003°11'0 0.0
2017-Dec-12 12:59N 51°21' E 003°11'0 0.0
2017-Dec-12 12:29N 51°21' E 003°11'0 0.0
2017-Dec-12 11:59N 51°21' E 003°11'0 0.0
2017-Dec-12 11:29N 51°21' E 003°11'0 0.0
2017-Dec-12 10:59N 51°21' E 003°11'0 0.0
2017-Dec-12 10:29N 51°21' E 003°11'0 0.0
2017-Dec-12 09:59N 51°21' E 003°11'0 0.0
2017-Dec-12 09:29N 51°21' E 003°11'0 0.0
2017-Dec-12 08:59N 51°21' E 003°11'0 0.0
2017-Dec-12 08:29N 51°21' E 003°11'0 0.0
2017-Dec-12 07:59N 51°21' E 003°11'0 0.0
2017-Dec-12 07:29N 51°21' E 003°11'0 0.0
2017-Dec-12 06:59N 51°21' E 003°11'0 0.0
2017-Dec-12 06:29N 51°21' E 003°11'0 0.0
2017-Dec-12 05:59N 51°21' E 003°11'0 0.0
2017-Dec-12 05:29N 51°21' E 003°11'0 0.0
2017-Dec-12 04:59N 51°21' E 003°11'0 0.0
2017-Dec-12 04:29N 51°21' E 003°11'0 0.0
2017-Dec-12 03:59N 51°21' E 003°11'0 0.0
2017-Dec-12 03:30N 51°21' E 003°11'0 0.0
2017-Dec-12 02:59N 51°21' E 003°11'0 0.0
2017-Dec-12 02:29N 51°21' E 003°11'0 0.0
2017-Dec-12 01:59N 51°21' E 003°11'0 0.0
2017-Dec-12 01:29N 51°21' E 003°11'0 0.0
2017-Dec-12 00:59N 51°21' E 003°11'0 0.0
2017-Dec-12 00:29N 51°21' E 003°11'0 0.0
2017-Dec-11 23:59N 51°21' E 003°11'0 0.0
2017-Dec-11 23:29N 51°21' E 003°11'0 0.0
2017-Dec-11 22:59N 51°21' E 003°11'0 0.0
2017-Dec-11 22:29N 51°21' E 003°11'0 0.0
2017-Dec-11 21:59N 51°21' E 003°11'0 0.0
2017-Dec-11 21:29N 51°21' E 003°11'0 0.0
2017-Dec-11 20:59N 51°21' E 003°11'0 0.0
2017-Dec-11 20:29N 51°21' E 003°11'0 0.0
2017-Dec-11 19:59N 51°21' E 003°11'0 0.0
2017-Dec-11 19:29N 51°21' E 003°11'0 0.0
2017-Dec-11 18:59N 51°21' E 003°11'0 0.0
2017-Dec-11 18:29N 51°21' E 003°11'0 0.0
2017-Dec-11 17:59N 51°21' E 003°11'0 0.0
2017-Dec-11 17:29N 51°21' E 003°11'0 0.0
2017-Dec-11 16:59N 51°21' E 003°11'0 0.0
2017-Dec-11 16:29N 51°21' E 003°11'0 0.0
2017-Dec-11 15:59N 51°21' E 003°11'0 0.0
2017-Dec-11 15:29N 51°21' E 003°11'0 0.0
2017-Dec-11 14:59N 51°21' E 003°11'0 0.0
2017-Dec-11 14:29N 51°21' E 003°11'0 0.0
2017-Dec-11 13:59N 51°21' E 003°11'0 0.0
2017-Dec-11 13:29N 51°21' E 003°11'0 0.0
2017-Dec-11 12:59N 51°21' E 003°11'0 0.0
2017-Dec-11 12:29N 51°21' E 003°11'0 0.0
2017-Dec-11 11:59N 51°21' E 003°11'0 0.0
2017-Dec-11 11:29N 51°21' E 003°11'0 0.0
2017-Dec-11 10:59N 51°21' E 003°11'0 0.0
2017-Dec-11 10:29N 51°21' E 003°11'0 0.0
2017-Dec-11 09:59N 51°21' E 003°11'0 0.0
2017-Dec-11 09:29N 51°21' E 003°11'0 0.0
2017-Dec-11 08:59N 51°21' E 003°11'0 0.0
2017-Dec-11 08:29N 51°21' E 003°11'0 0.0
2017-Dec-11 07:59N 51°21' E 003°11'0 0.0
2017-Dec-11 07:29N 51°21' E 003°11'0 0.0
2017-Dec-11 06:59N 51°21' E 003°11'0 0.0
2017-Dec-11 06:29N 51°21' E 003°11'0 0.0
2017-Dec-11 05:59N 51°21' E 003°11'0 0.0
2017-Dec-11 05:29N 51°21' E 003°11'0 0.0
2017-Dec-11 04:59N 51°21' E 003°11'0 0.0
2017-Dec-11 04:29N 51°21' E 003°11'0 0.0
2017-Dec-11 03:59N 51°21' E 003°11'0 0.0
2017-Dec-11 03:29N 51°21' E 003°11'0 0.0
2017-Dec-11 02:59N 51°21' E 003°11'0 0.0
2017-Dec-11 02:29N 51°21' E 003°11'0 0.0
2017-Dec-11 01:59N 51°21' E 003°11'0 0.0
2017-Dec-11 01:29N 51°21' E 003°11'0 0.0
2017-Dec-11 00:59N 51°21' E 003°11'0 0.0
2017-Dec-11 00:29N 51°21' E 003°11'0 0.0
2017-Dec-10 23:59N 51°21' E 003°11'0 0.0
2017-Dec-10 23:29N 51°21' E 003°11'0 0.0
2017-Dec-10 22:59N 51°21' E 003°11'0 0.0
2017-Dec-10 22:29N 51°21' E 003°11'0 0.0
2017-Dec-10 21:59N 51°21' E 003°11'0 0.0
2017-Dec-10 21:29N 51°21' E 003°11'0 0.0
2017-Dec-10 20:59N 51°21' E 003°11'0 0.0
2017-Dec-10 20:29N 51°21' E 003°11'0 0.0
2017-Dec-10 19:59N 51°21' E 003°11'0 0.0
2017-Dec-10 19:29N 51°21' E 003°11'0 0.0
2017-Dec-10 18:59N 51°21' E 003°11'0 0.0
2017-Dec-10 18:29N 51°21' E 003°11'0 0.0
2017-Dec-10 17:59N 51°21' E 003°11'0 0.0
2017-Dec-10 17:29N 51°21' E 003°11'0 0.0
2017-Dec-10 16:59N 51°21' E 003°11'0 0.0
2017-Dec-10 16:29N 51°21' E 003°11'0 0.0
2017-Dec-10 15:59N 51°21' E 003°11'0 0.0
2017-Dec-10 15:29N 51°21' E 003°11'0 0.0
2017-Dec-10 14:59N 51°21' E 003°11'0 0.0
2017-Dec-10 14:29N 51°21' E 003°11'0 0.0
2017-Dec-10 13:59N 51°21' E 003°11'0 0.0
2017-Dec-10 13:29N 51°21' E 003°11'0 0.0
2017-Dec-10 12:59N 51°21' E 003°11'0 0.0
2017-Dec-10 12:29N 51°21' E 003°11'0 0.0
2017-Dec-10 11:59N 51°21' E 003°11'0 0.0
2017-Dec-10 11:29N 51°21' E 003°11'0 0.0
2017-Dec-10 10:59N 51°21' E 003°11'0 0.0
2017-Dec-10 10:29N 51°21' E 003°11'0 0.0
2017-Dec-10 09:59N 51°21' E 003°11'0 0.0
2017-Dec-10 09:29N 51°21' E 003°11'0 0.0
2017-Dec-10 08:59N 51°21' E 003°11'0 0.0
2017-Dec-10 08:29N 51°21' E 003°11'0 0.0
2017-Dec-10 07:59N 51°21' E 003°11'0 0.0
2017-Dec-10 07:29N 51°21' E 003°11'0 0.0
2017-Dec-10 06:59N 51°21' E 003°11'0 0.0
2017-Dec-10 06:29N 51°21' E 003°11'0 0.0
2017-Dec-10 05:59N 51°21' E 003°11'0 0.0
2017-Dec-10 05:29N 51°21' E 003°11'0 0.0
2017-Dec-10 04:59N 51°21' E 003°11'0 0.0
2017-Dec-10 04:29N 51°21' E 003°11'0 0.0
2017-Dec-10 03:59N 51°21' E 003°11'0 0.0
2017-Dec-10 03:29N 51°21' E 003°11'0 0.0
2017-Dec-10 03:00N 51°21' E 003°11'0 0.0
2017-Dec-10 02:29N 51°21' E 003°11'0 0.0
2017-Dec-10 01:59N 51°21' E 003°11'0 0.0
2017-Dec-10 01:29N 51°21' E 003°11'0 0.0
2017-Dec-10 00:59N 51°21' E 003°11'0 0.0
2017-Dec-10 00:29N 51°21' E 003°11'0 0.0
2017-Dec-09 23:59N 51°21' E 003°11'0 0.0
2017-Dec-09 23:29N 51°21' E 003°11'0 0.0
2017-Dec-09 22:59N 51°21' E 003°11'0 0.0
2017-Dec-09 22:29N 51°21' E 003°11'0 0.0
2017-Dec-09 21:59N 51°21' E 003°11'0 0.0
2017-Dec-09 21:29N 51°21' E 003°11'0 0.0
2017-Dec-09 20:59N 51°21' E 003°11'0 0.0
2017-Dec-09 20:29N 51°21' E 003°11'0 0.0
2017-Dec-09 19:59N 51°21' E 003°11'0 0.0
2017-Dec-09 19:29N 51°21' E 003°11'0 0.0
2017-Dec-09 18:59N 51°21' E 003°11'0 0.0
2017-Dec-09 18:29N 51°21' E 003°11'0 0.0
2017-Dec-09 17:59N 51°21' E 003°11'0 0.0
2017-Dec-09 17:29N 51°21' E 003°11'0 0.0
2017-Dec-09 16:59N 51°21' E 003°11'0 0.0
2017-Dec-09 16:29N 51°21' E 003°11'0 0.0
2017-Dec-09 15:59N 51°21' E 003°11'0 0.0
2017-Dec-09 15:29N 51°21' E 003°11'0 0.0
2017-Dec-09 14:59N 51°21' E 003°11'0 0.0
2017-Dec-09 14:29N 51°21' E 003°11'0 0.0
2017-Dec-09 13:59N 51°21' E 003°11'0 0.0
2017-Dec-09 13:29N 51°21' E 003°11'0 0.0
2017-Dec-09 12:59N 51°21' E 003°11'0 0.0
2017-Dec-09 12:29N 51°21' E 003°11'0 0.0
2017-Dec-09 11:59N 51°21' E 003°11'0 0.0
2017-Dec-09 11:29N 51°21' E 003°11'0 0.0
2017-Dec-09 10:59N 51°21' E 003°11'0 0.0
2017-Dec-09 10:29N 51°21' E 003°11'0 0.0
2017-Dec-09 09:59N 51°21' E 003°11'0 0.0
2017-Dec-09 09:29N 51°21' E 003°11'0 0.0
2017-Dec-09 08:59N 51°21' E 003°11'0 0.0
2017-Dec-09 08:29N 51°21' E 003°11'0 0.0
2017-Dec-09 07:59N 51°21' E 003°11'0 0.0
2017-Dec-09 07:29N 51°21' E 003°11'0 0.0
2017-Dec-09 06:59N 51°21' E 003°11'0 0.0
2017-Dec-09 06:29N 51°21' E 003°11'0 0.0
2017-Dec-09 05:59N 51°21' E 003°11'0 0.0
2017-Dec-09 05:29N 51°21' E 003°11'0 0.0
2017-Dec-09 04:59N 51°21' E 003°11'0 0.0
2017-Dec-09 04:29N 51°21' E 003°11'0 0.0
2017-Dec-09 03:59N 51°21' E 003°11'0 0.0
2017-Dec-09 03:29N 51°21' E 003°11'0 0.0
2017-Dec-09 03:00N 51°21' E 003°11'0 0.0
2017-Dec-09 02:29N 51°21' E 003°11'0 0.0
2017-Dec-09 01:59N 51°21' E 003°11'0 0.0
2017-Dec-09 01:29N 51°21' E 003°11'0 0.0
2017-Dec-09 00:59N 51°21' E 003°11'0 0.0
2017-Dec-09 00:30N 51°21' E 003°11'0 0.0
2017-Dec-08 23:59N 51°21' E 003°11'0 0.0
2017-Dec-08 23:29N 51°21' E 003°11'0 0.0
2017-Dec-08 22:59N 51°21' E 003°11'0 0.0
2017-Dec-08 22:29N 51°21' E 003°11'0 0.0
2017-Dec-08 21:59N 51°21' E 003°11'0 0.0
2017-Dec-08 21:30N 51°21' E 003°11'0 0.0
2017-Dec-08 20:59N 51°21' E 003°11'0 0.0
2017-Dec-08 20:29N 51°21' E 003°11'0 0.0
2017-Dec-08 20:00N 51°21' E 003°11'1 1.1
2017-Dec-08 19:30N 51°21' E 003°12'4 7.2
2017-Dec-08 19:01N 51°24' E 003°08'816.7
2017-Dec-08 18:31N 51°25' E 002°55'713.2
2017-Dec-08 18:01N 51°23' E 002°44'0 0.4
2017-Dec-08 17:30N 51°23' E 002°45'2 4.0
2017-Dec-08 17:01N 51°22' E 002°42'4 8.2
2017-Dec-08 16:29N 51°22' E 002°35'713.6
2017-Dec-08 16:00N 51°21' E 002°25'714.3
2017-Dec-08 15:31N 51°19' E 002°14'714.7
2017-Dec-08 15:01N 51°22' E 002°03'510.8
2017-Dec-08 14:31N 51°27' E 002°01'714.3
2017-Dec-08 14:01N 51°32' E 002°09'815.0
2017-Dec-08 13:30N 51°38' E 002°17'815.6
2017-Dec-08 13:01N 51°44' E 002°25'916.0
2017-Dec-08 12:27N 51°51' E 002°34'3 7.2
2017-Dec-08 12:00N 51°54' E 002°36'1723.8 350 / 301010.1 5.4 5.2 12.0
2017-Dec-08 11:18N 52°06' E 002°55'616.9
2017-Dec-08 10:57N 52°11' E 003°01'1116.6
2017-Dec-08 10:19N 52°19' E 003°10'1516.3
2017-Dec-08 09:25N 52°32' E 003°23'614.0
2017-Dec-08 09:00N 52°36' E 003°30'223.6 270 / 241006.5 5.4 6.0-2.313.0
2017-Dec-08 08:55N 52°37' E 003°31'615.4
2017-Dec-08 08:30N 52°42' E 003°38'714.7
2017-Dec-08 08:00N 52°48' E 003°46'713.7
2017-Dec-08 07:29N 52°54' E 003°53'  
Track history (hours):
 
Tides and Currents Weather Stations Pressure Air Temp Water Temp Dewpoint Dewpoint Depression Visibility Wind Speed Wind Dir Waves Ship Positions

Maersk Leon

Last reported at 2017-Dec-18 07:01 UTC. Time now 2017-Dec-18 07:12 UTC.
Position N 51°22' E 003°55'.

Length 300 m; draft 9.8 m.

Type: Cargo ship. MMSI: 566405000.

Date/timePositionNaut miles runAvg speedWind from/ knotsBaromVisibWave heightAir tempDewpointWater temp
2017-Dec-18 07:01N 51°22' E 003°55'611.1
2017-Dec-18 06:31N 51°25' E 004°02'511.0
2017-Dec-18 06:00N 51°23' E 004°10'5 9.8
2017-Dec-18 05:30N 51°20' E 004°16'3 6.6
2017-Dec-18 05:00N 51°17' E 004°15'0 0.2
2017-Dec-18 04:30N 51°17' E 004°15'0 0.0
2017-Dec-18 04:00N 51°17' E 004°15'0 0.0
2017-Dec-18 03:30N 51°17' E 004°15'0 0.0
2017-Dec-18 03:00N 51°17' E 004°15'0 0.0
2017-Dec-18 02:30N 51°17' E 004°15'0 0.0
2017-Dec-18 02:00N 51°17' E 004°15'0 0.0
2017-Dec-18 01:30N 51°17' E 004°15'0 0.0
2017-Dec-18 01:00N 51°17' E 004°15'0 0.0
2017-Dec-18 00:30N 51°17' E 004°15'0 0.0
2017-Dec-18 00:00N 51°17' E 004°15'0 0.0
2017-Dec-17 23:30N 51°17' E 004°15'0 0.0
2017-Dec-17 23:00N 51°17' E 004°15'0 0.0
2017-Dec-17 22:30N 51°17' E 004°15'0 0.0
2017-Dec-17 22:00N 51°17' E 004°15'0 0.0
2017-Dec-17 21:30N 51°17' E 004°15'0 0.0
2017-Dec-17 21:00N 51°17' E 004°15'0 0.0
2017-Dec-17 20:30N 51°17' E 004°15'0 0.0
2017-Dec-17 20:00N 51°17' E 004°15'0 0.0
2017-Dec-17 19:30N 51°17' E 004°15'0 0.0
2017-Dec-17 19:00N 51°17' E 004°15'0 0.0
2017-Dec-17 18:30N 51°17' E 004°15'0 0.0
2017-Dec-17 18:00N 51°17' E 004°15'0 0.0
2017-Dec-17 17:30N 51°17' E 004°15'0 0.0
2017-Dec-17 17:00N 51°17' E 004°15'0 0.0
2017-Dec-17 16:30N 51°17' E 004°15'0 0.0
2017-Dec-17 15:57N 51°17' E 004°15'0 0.0
2017-Dec-17 15:30N 51°17' E 004°15'0 0.0
2017-Dec-17 15:00N 51°17' E 004°15'1 2.0
2017-Dec-17 14:30N 51°18' E 004°16'2 3.7
2017-Dec-17 14:00N 51°20' E 004°16'510.5
2017-Dec-17 13:30N 51°23' E 004°10'511.0
2017-Dec-17 13:00N 51°25' E 004°02'713.7
2017-Dec-17 12:30N 51°21' E 003°53'714.8
2017-Dec-17 12:00N 51°25' E 003°43'510.5
2017-Dec-17 11:30N 51°25' E 003°34'918.4
2017-Dec-17 11:00N 51°24' E 003°20'1020.4
2017-Dec-17 10:30N 51°25' E 003°03'918.1
2017-Dec-17 10:00N 51°22' E 002°49'5 9.0
2017-Dec-17 09:30N 51°22' E 002°42'5 9.8
2017-Dec-17 09:00N 51°24' E 002°35'2 1.9
2017-Dec-17 07:47N 51°26' E 002°36'0 0.0
2017-Dec-17 06:03N 51°26' E 002°36'0 0.0
2017-Dec-17 05:59N 51°26' E 002°36'0 0.1
2017-Dec-17 05:27N 51°26' E 002°36'0 0.0
2017-Dec-17 04:53N 51°26' E 002°36'0 0.0
2017-Dec-17 04:26N 51°26' E 002°36'0 0.1
2017-Dec-17 03:59N 51°26' E 002°36'0 0.1
2017-Dec-17 03:18N 51°26' E 002°36'0 0.0
2017-Dec-17 01:42N 51°26' E 002°36'0 0.0
2017-Dec-17 01:15N 51°26' E 002°36'0 0.0
2017-Dec-16 15:38N 51°26' E 002°36'0 0.1
2017-Dec-16 15:18N 51°26' E 002°36'0 0.0
2017-Dec-16 14:45N 51°26' E 002°36'0 0.1
2017-Dec-16 13:59N 51°27' E 002°36'0 0.9
2017-Dec-16 13:28N 51°27' E 002°36'611.3
2017-Dec-16 12:59N 51°22' E 002°31'612.6
2017-Dec-16 12:30N 51°20' E 002°23'613.0
2017-Dec-16 12:01N 51°16' E 002°14'713.0
2017-Dec-16 11:30N 51°13' E 002°04'713.3
2017-Dec-16 11:00N 51°10' E 001°55'713.4
2017-Dec-16 10:30N 51°07' E 001°46'613.0
2017-Dec-16 10:00N 51°02' E 001°38'3176.8
2017-Dec-16 10:00N 51°00' E 001°36'4 7.3 340 / 161016.1 5.4 4.0-1.612.0
2017-Dec-16 09:30N 50°58' E 001°31'611.7
2017-Dec-16 09:00N 50°53' E 001°26'611.0
2017-Dec-16 08:26N 50°47' E 001°24'410.2
2017-Dec-16 08:00N 50°43' E 001°21'510.7
2017-Dec-16 07:30N 50°39' E 001°16'510.5
2017-Dec-16 07:00N 50°35' E 001°10'610.2
2017-Dec-16 06:25N 50°32' E 001°03'410.4
2017-Dec-16 06:00N 50°29' E 000°57'611.2
2017-Dec-16 05:30N 50°27' E 000°48'610.7
2017-Dec-16 04:55N 50°26' E 000°39'410.4
2017-Dec-16 04:30N 50°24' E 000°33'5 9.9
2017-Dec-16 04:00N 50°23' E 000°25'5 9.6
2017-Dec-16 03:30N 50°21' E 000°18'5 9.5
2017-Dec-16 03:00N 50°20' E 000°11'5 9.4
2017-Dec-16 02:30N 50°19' E 000°04'5 9.3
2017-Dec-16 02:00N 50°18' W 000°03'5 9.2
2017-Dec-16 01:30N 50°18' W 000°11'5 9.3
2017-Dec-16 01:00N 50°18' W 000°18'5 9.3
2017-Dec-16 00:30N 50°18' W 000°25'5 9.4
2017-Dec-16 00:00N 50°19' W 000°33'5 9.6
2017-Dec-15 23:28N 50°20' W 000°40'5 9.6
2017-Dec-15 23:00N 50°22' W 000°47'612.2
2017-Dec-15 22:30N 50°28' W 000°47'611.6
2017-Dec-15 22:00N 50°33' W 000°51'611.4
2017-Dec-15 21:30N 50°38' W 000°55'510.0
2017-Dec-15 21:00N 50°43' W 000°58'816.6
2017-Dec-15 20:30N 50°46' W 001°10'510.7
2017-Dec-15 20:00N 50°48' W 001°17'5 9.2
2017-Dec-15 19:30N 50°52' W 001°22'3 6.9
2017-Dec-15 19:00N 50°54' W 001°26'0 0.5
2017-Dec-15 18:28N 50°54' W 001°27'0 0.0
2017-Dec-15 17:58N 50°54' W 001°27'0 0.0
2017-Dec-15 17:28N 50°54' W 001°27'0 0.0
2017-Dec-15 16:58N 50°54' W 001°27'0 0.0
2017-Dec-15 16:28N 50°54' W 001°27'0 0.0
2017-Dec-15 15:58N 50°54' W 001°27'0 0.0
2017-Dec-15 15:28N 50°54' W 001°27'0 0.0
2017-Dec-15 14:58N 50°54' W 001°27'0 0.0
2017-Dec-15 14:28N 50°54' W 001°27'0 0.0
2017-Dec-15 13:58N 50°54' W 001°27'0 0.0
2017-Dec-15 13:28N 50°54' W 001°27'0 0.0
2017-Dec-15 12:58N 50°54' W 001°27'0 0.0
2017-Dec-15 12:28N 50°54' W 001°27'0 0.0
2017-Dec-15 11:58N 50°54' W 001°27'0 0.0
2017-Dec-15 11:28N 50°54' W 001°27'0 0.0
2017-Dec-15 10:58N 50°54' W 001°27'0 0.0
2017-Dec-15 10:28N 50°54' W 001°27'0 0.0
2017-Dec-15 09:58N 50°54' W 001°27'0 0.0
2017-Dec-15 09:28N 50°54' W 001°27'0 0.0
2017-Dec-15 08:46N 50°54' W 001°27'0 0.0
2017-Dec-15 08:28N 50°54' W 001°27'0 0.0
2017-Dec-15 07:58N 50°54' W 001°27'0 0.0
2017-Dec-15 07:28N 50°54' W 001°27'0 0.0
2017-Dec-15 06:58N 50°54' W 001°27'0 0.0
2017-Dec-15 06:28N 50°54' W 001°27'0 0.0
2017-Dec-15 05:58N 50°54' W 001°27'0 0.0
2017-Dec-15 05:28N 50°54' W 001°27'0 0.0
2017-Dec-15 04:58N 50°54' W 001°27'0 0.0
2017-Dec-15 04:28N 50°54' W 001°27'0 0.0
2017-Dec-15 03:58N 50°54' W 001°27'6 4.1
2017-Dec-15 02:31N 50°51' W 001°19'1912.3
2017-Dec-15 01:00N 50°40' W 000°56'4 7.8
2017-Dec-15 00:31N 50°37' W 000°51'37 6.2
2017-Dec-14 18:30N 50°34' E 000°07'3 5.3
2017-Dec-14 18:00N 50°34' E 000°11'3 5.5
2017-Dec-14 17:30N 50°35' E 000°15'3 5.8
2017-Dec-14 17:00N 50°36' E 000°19'3 6.2
2017-Dec-14 16:30N 50°37' E 000°24'3 6.7
2017-Dec-14 16:00N 50°38' E 000°29'7 7.2
2017-Dec-14 15:00N 50°41' E 000°39'4 8.5
2017-Dec-14 14:30N 50°43' E 000°45'4 8.9
2017-Dec-14 14:00N 50°46' E 000°50'4 8.8
2017-Dec-14 13:30N 50°49' E 000°56'4 8.6
2017-Dec-14 13:00N 50°51' E 001°02'4 7.9
2017-Dec-14 12:30N 50°53' E 001°07'4 7.4
2017-Dec-14 12:00N 50°56' E 001°11'3 6.9
2017-Dec-14 11:30N 50°58' E 001°15'4 6.4
2017-Dec-14 10:52N 51°01' E 001°20'2 5.9
2017-Dec-14 10:30N 51°02' E 001°23'3 5.5
2017-Dec-14 10:00N 51°04' E 001°26'3 5.7
2017-Dec-14 09:30N 51°06' E 001°30'3 5.6
2017-Dec-14 09:00N 51°07' E 001°33'3 5.6
2017-Dec-14 08:30N 51°09' E 001°37'3 6.2
2017-Dec-14 08:00N 51°11' E 001°40'3 6.6
2017-Dec-14 07:30N 51°13' E 001°44'4 7.4
2017-Dec-14 07:00N 51°16' E 001°48'4 7.7
2017-Dec-14 06:30N 51°19' E 001°52'4 8.1
2017-Dec-14 06:00N 51°22' E 001°56'4 7.9
2017-Dec-14 05:30N 51°25' E 002°01'4 7.9
2017-Dec-14 05:00N 51°23' E 002°07'4 7.4
2017-Dec-14 04:30N 51°21' E 002°12'5 9.1
2017-Dec-14 04:00N 51°21' E 002°19'4 7.8
2017-Dec-14 03:30N 51°22' E 002°25'3 6.1
2017-Dec-14 03:00N 51°24' E 002°29'3 6.4
2017-Dec-14 02:30N 51°26' E 002°32'4 3.0
2017-Dec-14 01:12N 51°26' E 002°39'1 1.6
2017-Dec-14 00:42N 51°26' E 002°37'0 0.3
2017-Dec-14 00:30N 51°26' E 002°37'0 0.1
2017-Dec-13 23:48N 51°26' E 002°37'0 0.1
2017-Dec-13 23:27N 51°26' E 002°37'0 0.1
2017-Dec-13 23:00N 51°26' E 002°37'0 0.0
2017-Dec-13 21:48N 51°26' E 002°37'0 0.0
2017-Dec-13 20:54N 51°26' E 002°37'0 0.0
2017-Dec-13 17:52N 51°26' E 002°37'0 0.8
2017-Dec-13 17:26N 51°27' E 002°37'0 0.1
2017-Dec-13 16:53N 51°27' E 002°37'0 0.0
2017-Dec-13 14:17N 51°27' E 002°37'0 0.1
2017-Dec-13 13:56N 51°27' E 002°37'0 0.1
2017-Dec-13 13:11N 51°26' E 002°37'0 0.0
2017-Dec-13 12:50N 51°26' E 002°37'0 0.0
2017-Dec-13 12:02N 51°26' E 002°37'0 0.0
2017-Dec-13 11:47N 51°26' E 002°37'0 0.1
2017-Dec-13 11:29N 51°26' E 002°37'0 0.0
2017-Dec-13 10:14N 51°26' E 002°37'0 0.1
2017-Dec-13 09:53N 51°26' E 002°37'0 0.0
2017-Dec-13 09:29N 51°26' E 002°37'0 0.0
2017-Dec-13 08:59N 51°26' E 002°37'0 0.2
2017-Dec-13 08:08N 51°27' E 002°37'0 0.0
2017-Dec-13 07:56N 51°27' E 002°37'0 0.0
2017-Dec-13 07:29N 51°27' E 002°37'0 0.1
2017-Dec-13 06:59N 51°27' E 002°37'0 0.1
2017-Dec-13 06:23N 51°27' E 002°37'0 0.0
2017-Dec-13 05:56N 51°27' E 002°37'0 0.0
2017-Dec-13 05:23N 51°27' E 002°37'0 0.0
2017-Dec-13 04:56N 51°27' E 002°37'0 0.1
2017-Dec-13 04:26N 51°27' E 002°37'0 0.0
2017-Dec-13 03:56N 51°27' E 002°37'0 0.0
2017-Dec-13 03:26N 51°27' E 002°36'0 0.0
2017-Dec-13 02:56N 51°27' E 002°37'0 0.0
2017-Dec-13 02:26N 51°27' E 002°37'0 0.0
2017-Dec-13 01:56N 51°27' E 002°37'0 0.0
2017-Dec-13 01:26N 51°27' E 002°36'0 0.0
2017-Dec-13 00:56N 51°27' E 002°36'0 0.1
2017-Dec-13 00:29N 51°27' E 002°37'0 0.0
2017-Dec-12 23:59N 51°27' E 002°37'0 0.0
2017-Dec-12 23:14N 51°27' E 002°37'0 0.1
2017-Dec-12 22:56N 51°27' E 002°37'0 0.0
2017-Dec-12 22:26N 51°27' E 002°37'0 0.0
2017-Dec-12 19:38N 51°27' E 002°37'0 0.8
2017-Dec-12 19:27N 51°26' E 002°37'4 8.8
2017-Dec-12 18:58N 51°25' E 002°43'511.7
2017-Dec-12 18:30N 51°25' E 002°52'714.7
2017-Dec-12 18:00N 51°24' E 003°04'611.9
2017-Dec-12 17:30N 51°21' E 003°12'1 1.1
2017-Dec-12 17:00N 51°21' E 003°11'0 0.0
2017-Dec-12 16:29N 51°21' E 003°11'0 0.0
2017-Dec-12 15:59N 51°21' E 003°11'0 0.0
2017-Dec-12 15:29N 51°21' E 003°11'0 0.0
2017-Dec-12 15:00N 51°21' E 003°11'0 0.0
2017-Dec-12 14:29N 51°21' E 003°11'0 0.0
2017-Dec-12 13:59N 51°21' E 003°11'0 0.0
2017-Dec-12 13:29N 51°21' E 003°11'0 0.0
2017-Dec-12 12:59N 51°21' E 003°11'0 0.0
2017-Dec-12 12:29N 51°21' E 003°11'0 0.0
2017-Dec-12 11:59N 51°21' E 003°11'0 0.0
2017-Dec-12 11:29N 51°21' E 003°11'0 0.0
2017-Dec-12 10:59N 51°21' E 003°11'0 0.0
2017-Dec-12 10:29N 51°21' E 003°11'0 0.0
2017-Dec-12 09:59N 51°21' E 003°11'0 0.0
2017-Dec-12 09:29N 51°21' E 003°11'0 0.0
2017-Dec-12 08:59N 51°21' E 003°11'0 0.0
2017-Dec-12 08:29N 51°21' E 003°11'0 0.0
2017-Dec-12 07:59N 51°21' E 003°11'0 0.0
2017-Dec-12 07:29N 51°21' E 003°11'0 0.0
2017-Dec-12 06:59N 51°21' E 003°11'0 0.0
2017-Dec-12 06:29N 51°21' E 003°11'0 0.0
2017-Dec-12 05:59N 51°21' E 003°11'0 0.0
2017-Dec-12 05:29N 51°21' E 003°11'0 0.0
2017-Dec-12 04:59N 51°21' E 003°11'0 0.0
2017-Dec-12 04:29N 51°21' E 003°11'0 0.0
2017-Dec-12 03:59N 51°21' E 003°11'0 0.0
2017-Dec-12 03:30N 51°21' E 003°11'0 0.0
2017-Dec-12 02:59N 51°21' E 003°11'0 0.0
2017-Dec-12 02:29N 51°21' E 003°11'0 0.0
2017-Dec-12 01:59N 51°21' E 003°11'0 0.0
2017-Dec-12 01:29N 51°21' E 003°11'0 0.0
2017-Dec-12 00:59N 51°21' E 003°11'0 0.0
2017-Dec-12 00:29N 51°21' E 003°11'0 0.0
2017-Dec-11 23:59N 51°21' E 003°11'0 0.0
2017-Dec-11 23:29N 51°21' E 003°11'0 0.0
2017-Dec-11 22:59N 51°21' E 003°11'0 0.0
2017-Dec-11 22:29N 51°21' E 003°11'0 0.0
2017-Dec-11 21:59N 51°21' E 003°11'0 0.0
2017-Dec-11 21:29N 51°21' E 003°11'0 0.0
2017-Dec-11 20:59N 51°21' E 003°11'0 0.0
2017-Dec-11 20:29N 51°21' E 003°11'0 0.0
2017-Dec-11 19:59N 51°21' E 003°11'0 0.0
2017-Dec-11 19:29N 51°21' E 003°11'0 0.0
2017-Dec-11 18:59N 51°21' E 003°11'0 0.0
2017-Dec-11 18:29N 51°21' E 003°11'0 0.0
2017-Dec-11 17:59N 51°21' E 003°11'0 0.0
2017-Dec-11 17:29N 51°21' E 003°11'0 0.0
2017-Dec-11 16:59N 51°21' E 003°11'0 0.0
2017-Dec-11 16:29N 51°21' E 003°11'0 0.0
2017-Dec-11 15:59N 51°21' E 003°11'0 0.0
2017-Dec-11 15:29N 51°21' E 003°11'0 0.0
2017-Dec-11 14:59N 51°21' E 003°11'0 0.0
2017-Dec-11 14:29N 51°21' E 003°11'0 0.0
2017-Dec-11 13:59N 51°21' E 003°11'0 0.0
2017-Dec-11 13:29N 51°21' E 003°11'0 0.0
2017-Dec-11 12:59N 51°21' E 003°11'0 0.0
2017-Dec-11 12:29N 51°21' E 003°11'0 0.0
2017-Dec-11 11:59N 51°21' E 003°11'0 0.0
2017-Dec-11 11:29N 51°21' E 003°11'0 0.0
2017-Dec-11 10:59N 51°21' E 003°11'0 0.0
2017-Dec-11 10:29N 51°21' E 003°11'0 0.0
2017-Dec-11 09:59N 51°21' E 003°11'0 0.0
2017-Dec-11 09:29N 51°21' E 003°11'0 0.0
2017-Dec-11 08:59N 51°21' E 003°11'0 0.0
2017-Dec-11 08:29N 51°21' E 003°11'0 0.0
2017-Dec-11 07:59N 51°21' E 003°11'0 0.0
2017-Dec-11 07:29N 51°21' E 003°11'0 0.0
2017-Dec-11 06:59N 51°21' E 003°11'0 0.0
2017-Dec-11 06:29N 51°21' E 003°11'0 0.0
2017-Dec-11 05:59N 51°21' E 003°11'0 0.0
2017-Dec-11 05:29N 51°21' E 003°11'0 0.0
2017-Dec-11 04:59N 51°21' E 003°11'0 0.0
2017-Dec-11 04:29N 51°21' E 003°11'0 0.0
2017-Dec-11 03:59N 51°21' E 003°11'0 0.0
2017-Dec-11 03:29N 51°21' E 003°11'0 0.0
2017-Dec-11 02:59N 51°21' E 003°11'0 0.0
2017-Dec-11 02:29N 51°21' E 003°11'0 0.0
2017-Dec-11 01:59N 51°21' E 003°11'0 0.0
2017-Dec-11 01:29N 51°21' E 003°11'0 0.0
2017-Dec-11 00:59N 51°21' E 003°11'0 0.0
2017-Dec-11 00:29N 51°21' E 003°11'0 0.0
2017-Dec-10 23:59N 51°21' E 003°11'0 0.0
2017-Dec-10 23:29N 51°21' E 003°11'0 0.0
2017-Dec-10 22:59N 51°21' E 003°11'0 0.0
2017-Dec-10 22:29N 51°21' E 003°11'0 0.0
2017-Dec-10 21:59N 51°21' E 003°11'0 0.0
2017-Dec-10 21:29N 51°21' E 003°11'0 0.0
2017-Dec-10 20:59N 51°21' E 003°11'0 0.0
2017-Dec-10 20:29N 51°21' E 003°11'0 0.0
2017-Dec-10 19:59N 51°21' E 003°11'0 0.0
2017-Dec-10 19:29N 51°21' E 003°11'0 0.0
2017-Dec-10 18:59N 51°21' E 003°11'0 0.0
2017-Dec-10 18:29N 51°21' E 003°11'0 0.0
2017-Dec-10 17:59N 51°21' E 003°11'0 0.0
2017-Dec-10 17:29N 51°21' E 003°11'0 0.0
2017-Dec-10 16:59N 51°21' E 003°11'0 0.0
2017-Dec-10 16:29N 51°21' E 003°11'0 0.0
2017-Dec-10 15:59N 51°21' E 003°11'0 0.0
2017-Dec-10 15:29N 51°21' E 003°11'0 0.0
2017-Dec-10 14:59N 51°21' E 003°11'0 0.0
2017-Dec-10 14:29N 51°21' E 003°11'0 0.0
2017-Dec-10 13:59N 51°21' E 003°11'0 0.0
2017-Dec-10 13:29N 51°21' E 003°11'0 0.0
2017-Dec-10 12:59N 51°21' E 003°11'0 0.0
2017-Dec-10 12:29N 51°21' E 003°11'0 0.0
2017-Dec-10 11:59N 51°21' E 003°11'0 0.0
2017-Dec-10 11:29N 51°21' E 003°11'0 0.0
2017-Dec-10 10:59N 51°21' E 003°11'0 0.0
2017-Dec-10 10:29N 51°21' E 003°11'0 0.0
2017-Dec-10 09:59N 51°21' E 003°11'0 0.0
2017-Dec-10 09:29N 51°21' E 003°11'0 0.0
2017-Dec-10 08:59N 51°21' E 003°11'0 0.0
2017-Dec-10 08:29N 51°21' E 003°11'0 0.0
2017-Dec-10 07:59N 51°21' E 003°11'0 0.0
2017-Dec-10 07:29N 51°21' E 003°11'0 0.0
2017-Dec-10 06:59N 51°21' E 003°11'0 0.0
2017-Dec-10 06:29N 51°21' E 003°11'0 0.0
2017-Dec-10 05:59N 51°21' E 003°11'0 0.0
2017-Dec-10 05:29N 51°21' E 003°11'0 0.0
2017-Dec-10 04:59N 51°21' E 003°11'0 0.0
2017-Dec-10 04:29N 51°21' E 003°11'0 0.0
2017-Dec-10 03:59N 51°21' E 003°11'0 0.0
2017-Dec-10 03:29N 51°21' E 003°11'0 0.0
2017-Dec-10 03:00N 51°21' E 003°11'0 0.0
2017-Dec-10 02:29N 51°21' E 003°11'0 0.0
2017-Dec-10 01:59N 51°21' E 003°11'0 0.0
2017-Dec-10 01:29N 51°21' E 003°11'0 0.0
2017-Dec-10 00:59N 51°21' E 003°11'0 0.0
2017-Dec-10 00:29N 51°21' E 003°11'0 0.0
2017-Dec-09 23:59N 51°21' E 003°11'0 0.0
2017-Dec-09 23:29N 51°21' E 003°11'0 0.0
2017-Dec-09 22:59N 51°21' E 003°11'0 0.0
2017-Dec-09 22:29N 51°21' E 003°11'0 0.0
2017-Dec-09 21:59N 51°21' E 003°11'0 0.0
2017-Dec-09 21:29N 51°21' E 003°11'0 0.0
2017-Dec-09 20:59N 51°21' E 003°11'0 0.0
2017-Dec-09 20:29N 51°21' E 003°11'0 0.0
2017-Dec-09 19:59N 51°21' E 003°11'0 0.0
2017-Dec-09 19:29N 51°21' E 003°11'0 0.0
2017-Dec-09 18:59N 51°21' E 003°11'0 0.0
2017-Dec-09 18:29N 51°21' E 003°11'0 0.0
2017-Dec-09 17:59N 51°21' E 003°11'0 0.0
2017-Dec-09 17:29N 51°21' E 003°11'0 0.0
2017-Dec-09 16:59N 51°21' E 003°11'0 0.0
2017-Dec-09 16:29N 51°21' E 003°11'0 0.0
2017-Dec-09 15:59N 51°21' E 003°11'0 0.0
2017-Dec-09 15:29N 51°21' E 003°11'0 0.0
2017-Dec-09 14:59N 51°21' E 003°11'0 0.0
2017-Dec-09 14:29N 51°21' E 003°11'0 0.0
2017-Dec-09 13:59N 51°21' E 003°11'0 0.0
2017-Dec-09 13:29N 51°21' E 003°11'0 0.0
2017-Dec-09 12:59N 51°21' E 003°11'0 0.0
2017-Dec-09 12:29N 51°21' E 003°11'0 0.0
2017-Dec-09 11:59N 51°21' E 003°11'0 0.0
2017-Dec-09 11:29N 51°21' E 003°11'0 0.0
2017-Dec-09 10:59N 51°21' E 003°11'0 0.0
2017-Dec-09 10:29N 51°21' E 003°11'0 0.0
2017-Dec-09 09:59N 51°21' E 003°11'0 0.0
2017-Dec-09 09:29N 51°21' E 003°11'0 0.0
2017-Dec-09 08:59N 51°21' E 003°11'0 0.0
2017-Dec-09 08:29N 51°21' E 003°11'0 0.0
2017-Dec-09 07:59N 51°21' E 003°11'0 0.0
2017-Dec-09 07:29N 51°21' E 003°11'0 0.0
2017-Dec-09 06:59N 51°21' E 003°11'0 0.0
2017-Dec-09 06:29N 51°21' E 003°11'0 0.0
2017-Dec-09 05:59N 51°21' E 003°11'0 0.0
2017-Dec-09 05:29N 51°21' E 003°11'0 0.0
2017-Dec-09 04:59N 51°21' E 003°11'0 0.0
2017-Dec-09 04:29N 51°21' E 003°11'0 0.0
2017-Dec-09 03:59N 51°21' E 003°11'0 0.0
2017-Dec-09 03:29N 51°21' E 003°11'0 0.0
2017-Dec-09 03:00N 51°21' E 003°11'0 0.0
2017-Dec-09 02:29N 51°21' E 003°11'0 0.0
2017-Dec-09 01:59N 51°21' E 003°11'0 0.0
2017-Dec-09 01:29N 51°21' E 003°11'0 0.0
2017-Dec-09 00:59N 51°21' E 003°11'0 0.0
2017-Dec-09 00:30N 51°21' E 003°11'0 0.0
2017-Dec-08 23:59N 51°21' E 003°11'0 0.0
2017-Dec-08 23:29N 51°21' E 003°11'0 0.0
2017-Dec-08 22:59N 51°21' E 003°11'0 0.0
2017-Dec-08 22:29N 51°21' E 003°11'0 0.0
2017-Dec-08 21:59N 51°21' E 003°11'0 0.0
2017-Dec-08 21:30N 51°21' E 003°11'0 0.0
2017-Dec-08 20:59N 51°21' E 003°11'0 0.0
2017-Dec-08 20:29N 51°21' E 003°11'0 0.0
2017-Dec-08 20:00N 51°21' E 003°11'1 1.1
2017-Dec-08 19:30N 51°21' E 003°12'4 7.2
2017-Dec-08 19:01N 51°24' E 003°08'816.7
2017-Dec-08 18:31N 51°25' E 002°55'713.2
2017-Dec-08 18:01N 51°23' E 002°44'0 0.4
2017-Dec-08 17:30N 51°23' E 002°45'2 4.0
2017-Dec-08 17:01N 51°22' E 002°42'4 8.2
2017-Dec-08 16:29N 51°22' E 002°35'713.6
2017-Dec-08 16:00N 51°21' E 002°25'714.3
2017-Dec-08 15:31N 51°19' E 002°14'714.7
2017-Dec-08 15:01N 51°22' E 002°03'510.8
2017-Dec-08 14:31N 51°27' E 002°01'714.3
2017-Dec-08 14:01N 51°32' E 002°09'815.0
2017-Dec-08 13:30N 51°38' E 002°17'815.6
2017-Dec-08 13:01N 51°44' E 002°25'916.0
2017-Dec-08 12:27N 51°51' E 002°34'3 7.2
2017-Dec-08 12:00N 51°54' E 002°36'1723.8 350 / 301010.1 5.4 5.2 12.0
2017-Dec-08 11:18N 52°06' E 002°55'616.9
2017-Dec-08 10:57N 52°11' E 003°01'1116.6
2017-Dec-08 10:19N 52°19' E 003°10'1516.3
2017-Dec-08 09:25N 52°32' E 003°23'614.0
2017-Dec-08 09:00N 52°36' E 003°30'223.6 270 / 241006.5 5.4 6.0-2.313.0
2017-Dec-08 08:55N 52°37' E 003°31'615.4
2017-Dec-08 08:30N 52°42' E 003°38'714.7
2017-Dec-08 08:00N 52°48' E 003°46'713.7
2017-Dec-08 07:29N 52°54' E 003°53'  

Dump ship's entire track history